createdAt,value
2022-10-30T00:02:04.405Z,27.00
2022-10-30T00:04:33.218Z,25.75
2022-10-30T00:07:00.613Z,28.00
2022-10-30T00:09:28.030Z,26.00
2022-10-30T00:11:55.443Z,27.00
2022-10-30T00:14:22.833Z,27.25
2022-10-30T00:16:50.240Z,27.00
2022-10-30T00:19:17.672Z,26.00
2022-10-30T00:21:47.434Z,28.00
2022-10-30T00:24:15.808Z,27.50
2022-10-30T00:26:43.624Z,27.25
2022-10-30T00:29:11.031Z,27.00
2022-10-30T00:31:40.356Z,26.50
2022-10-30T00:34:08.133Z,28.00
2022-10-30T00:36:36.802Z,27.00
2022-10-30T00:39:06.204Z,27.00
2022-10-30T00:41:33.618Z,26.00
2022-10-30T00:44:02.987Z,26.75
2022-10-30T00:46:32.262Z,26.25
2022-10-30T00:49:01.431Z,26.00
2022-10-30T00:51:28.890Z,27.25
2022-10-30T00:53:56.655Z,26.00
2022-10-30T00:56:25.365Z,26.00
2022-10-30T00:58:55.040Z,25.75
2022-10-30T01:01:23.647Z,26.00
2022-10-30T01:03:51.616Z,26.00
2022-10-30T01:06:19.341Z,25.00
2022-10-30T01:08:46.990Z,25.50
2022-10-30T01:11:14.418Z,25.75
2022-10-30T01:13:43.595Z,26.00
2022-10-30T01:16:15.444Z,24.50
2022-10-30T01:18:45.002Z,24.00
2022-10-30T01:21:13.893Z,24.25
2022-10-30T01:23:47.716Z,25.50
2022-10-30T01:26:18.377Z,24.50
2022-10-30T01:29:04.044Z,25.00
2022-10-30T01:31:39.916Z,25.00
2022-10-30T01:34:14.491Z,25.25
2022-10-30T01:36:44.271Z,24.00
2022-10-30T01:39:15.323Z,24.00
2022-10-30T01:41:43.739Z,22.75
2022-10-30T01:44:14.988Z,24.00
2022-10-30T01:47:10.346Z,24.75
2022-10-30T01:49:45.031Z,23.75
2022-10-30T01:52:14.631Z,25.50
2022-10-30T01:54:44.495Z,24.00
2022-10-30T01:57:13.723Z,24.00
2022-10-30T01:59:45.338Z,24.00
2022-10-30T02:02:12.857Z,23.50
2022-10-30T02:04:40.555Z,24.00
2022-10-30T02:07:07.995Z,24.00
2022-10-30T02:09:41.874Z,23.00
2022-10-30T02:12:09.317Z,23.00
2022-10-30T02:14:38.540Z,23.50
2022-10-30T02:17:09.566Z,23.00
2022-10-30T02:19:37.037Z,23.25
2022-10-30T02:22:05.856Z,23.50
2022-10-30T02:24:33.624Z,23.00
2022-10-30T02:27:01.037Z,23.00
2022-10-30T02:29:28.680Z,21.50
2022-10-30T02:31:56.081Z,24.00
2022-10-30T02:34:23.549Z,22.00
2022-10-30T02:36:50.955Z,22.50
2022-10-30T02:39:21.260Z,22.75
2022-10-30T02:41:48.948Z,23.00
2022-10-30T02:44:16.216Z,23.00
2022-10-30T02:46:43.624Z,22.75
2022-10-30T02:49:10.873Z,21.75
2022-10-30T02:51:38.280Z,23.00
2022-10-30T02:54:05.731Z,22.25
2022-10-30T02:56:34.741Z,20.75
2022-10-30T02:59:02.173Z,22.25
2022-10-30T03:01:29.537Z,23.00
2022-10-30T03:03:59.076Z,22.25
2022-10-30T03:06:26.306Z,23.50
2022-10-30T03:08:53.705Z,21.50
2022-10-30T03:11:21.406Z,20.25
2022-10-30T03:13:50.153Z,22.00
2022-10-30T03:16:18.315Z,21.25
2022-10-30T03:18:45.751Z,22.00
2022-10-30T03:21:14.047Z,22.00
2022-10-30T03:23:41.473Z,20.00
2022-10-30T03:26:08.944Z,21.25
2022-10-30T03:29:06.847Z,22.00
2022-10-30T03:31:34.482Z,22.00
2022-10-30T03:34:20.324Z,22.00
2022-10-30T03:36:47.741Z,22.00
2022-10-30T03:39:15.156Z,21.25
2022-10-30T03:41:45.031Z,21.75
2022-10-30T03:44:14.458Z,21.75
2022-10-30T03:46:41.943Z,21.25
2022-10-30T03:49:26.765Z,22.00
2022-10-30T03:51:55.330Z,19.00
2022-10-30T03:54:24.379Z,22.00
2022-10-30T03:56:54.544Z,21.50
2022-10-30T03:59:24.729Z,20.25
2022-10-30T04:02:15.278Z,20.00
2022-10-30T04:04:44.012Z,20.00
2022-10-30T04:07:11.554Z,21.25
2022-10-30T04:09:38.987Z,21.25
2022-10-30T04:12:06.716Z,20.00
2022-10-30T04:14:35.415Z,20.25
2022-10-30T04:17:02.871Z,19.75
2022-10-30T04:19:30.314Z,20.00
2022-10-30T04:21:59.384Z,20.25
2022-10-30T04:24:26.780Z,20.25
2022-10-30T04:26:56.246Z,20.00
2022-10-30T04:29:23.669Z,20.00
2022-10-30T04:31:52.377Z,20.00
2022-10-30T04:34:20.680Z,19.25
2022-10-30T04:36:48.180Z,21.75
2022-10-30T04:39:15.427Z,21.25
2022-10-30T04:41:45.273Z,19.00
2022-10-30T04:44:19.234Z,20.00
2022-10-30T04:46:46.672Z,20.25
2022-10-30T04:49:15.232Z,20.00
2022-10-30T04:51:43.689Z,19.25
2022-10-30T04:54:11.106Z,20.00
2022-10-30T04:56:38.797Z,18.00
2022-10-30T04:59:06.092Z,19.25
2022-10-30T05:01:33.597Z,18.00
2022-10-30T05:04:02.845Z,19.50
2022-10-30T05:06:32.963Z,20.50
2022-10-30T05:09:00.382Z,16.00
2022-10-30T05:11:39.675Z,19.25
2022-10-30T05:14:08.278Z,20.00
2022-10-30T05:16:35.703Z,19.75
2022-10-30T05:19:05.068Z,20.00
2022-10-30T05:21:35.574Z,20.00
2022-10-30T05:24:02.995Z,20.00
2022-10-30T05:26:38.443Z,21.00
2022-10-30T05:29:05.852Z,20.00
2022-10-30T05:31:33.397Z,18.75
2022-10-30T05:34:07.634Z,20.00
2022-10-30T05:36:37.790Z,19.25
2022-10-30T05:39:05.222Z,20.00
2022-10-30T05:41:36.934Z,20.00
2022-10-30T05:44:04.788Z,20.00
2022-10-30T05:46:33.639Z,20.00
2022-10-30T05:49:13.044Z,20.00
2022-10-30T05:51:42.211Z,19.00
2022-10-30T05:54:11.732Z,19.50
2022-10-30T05:56:48.642Z,19.25
2022-10-30T05:59:16.063Z,16.25
2022-10-30T06:01:47.632Z,20.00
2022-10-30T06:04:15.331Z,19.00
2022-10-30T06:06:44.883Z,17.75
2022-10-30T06:09:12.317Z,17.25
2022-10-30T06:11:51.623Z,17.25
2022-10-30T06:14:23.305Z,17.25
2022-10-30T06:16:52.059Z,16.25
2022-10-30T06:19:28.940Z,16.00
2022-10-30T06:22:07.038Z,17.00
2022-10-30T06:24:43.379Z,17.00
2022-10-30T06:27:25.080Z,15.00
2022-10-30T06:29:54.791Z,16.00
2022-10-30T06:32:22.444Z,15.00
2022-10-30T06:34:50.224Z,16.00
2022-10-30T06:37:19.899Z,15.75
2022-10-30T06:39:48.650Z,14.50
2022-10-30T06:42:34.578Z,12.00
2022-10-30T06:45:21.730Z,16.00
2022-10-30T06:47:49.190Z,16.25
2022-10-30T06:50:17.969Z,15.75
2022-10-30T06:52:46.756Z,14.25
2022-10-30T06:55:14.198Z,15.00
2022-10-30T06:58:00.460Z,14.50
2022-10-30T07:00:47.150Z,15.25
2022-10-30T07:03:39.881Z,11.25
2022-10-30T07:06:08.048Z,14.00
2022-10-30T07:08:36.928Z,13.50
2022-10-30T07:11:04.401Z,14.00
2022-10-30T07:13:42.286Z,15.00
2022-10-30T07:16:28.356Z,9.50
2022-10-30T07:18:59.348Z,13.25
2022-10-30T07:21:29.654Z,14.75
2022-10-30T07:23:58.364Z,15.00
2022-10-30T07:26:30.545Z,14.00
2022-10-30T07:29:03.391Z,13.25
2022-10-30T07:31:57.662Z,13.00
2022-10-30T07:34:49.355Z,14.00
2022-10-30T07:37:35.636Z,13.00
2022-10-30T07:40:12.662Z,13.25
2022-10-30T07:42:59.847Z,14.50
2022-10-30T07:45:48.024Z,14.00
2022-10-30T07:48:40.376Z,14.00
2022-10-30T07:51:09.743Z,13.00
2022-10-30T07:53:39.307Z,13.75
2022-10-30T07:56:09.289Z,14.00
2022-10-30T07:59:15.131Z,14.00
2022-10-30T08:02:19.210Z,12.25
2022-10-30T08:05:07.570Z,13.25
2022-10-30T08:07:54.605Z,12.00
2022-10-30T08:10:22.090Z,13.00
2022-10-30T08:12:51.232Z,13.50
2022-10-30T08:15:18.734Z,14.25
2022-10-30T08:17:46.983Z,11.75
2022-10-30T08:20:15.444Z,11.75
2022-10-30T08:22:47.542Z,14.25
2022-10-30T08:25:15.473Z,14.25
2022-10-30T08:27:52.307Z,15.50
2022-10-30T08:30:19.820Z,15.00
2022-10-30T08:32:47.333Z,15.50
2022-10-30T08:35:33.491Z,11.75
2022-10-30T08:38:02.844Z,15.00
2022-10-30T08:40:30.509Z,16.00
2022-10-30T08:43:05.146Z,13.75
2022-10-30T08:45:33.670Z,15.25
2022-10-30T08:48:11.454Z,16.00
2022-10-30T08:50:41.365Z,13.50
2022-10-30T08:53:11.131Z,16.00
2022-10-30T08:55:38.643Z,16.25
2022-10-30T08:58:12.560Z,14.50
2022-10-30T09:00:40.202Z,11.50
2022-10-30T09:03:13.322Z,15.50
2022-10-30T09:06:16.212Z,14.75
2022-10-30T09:09:02.276Z,15.50
2022-10-30T09:11:34.003Z,15.75
2022-10-30T09:14:02.708Z,14.00
2022-10-30T09:16:30.132Z,11.00
2022-10-30T09:18:57.596Z,14.50
2022-10-30T09:21:27.966Z,15.75
2022-10-30T09:23:57.481Z,14.25
2022-10-30T09:26:36.880Z,14.25
2022-10-30T09:29:19.535Z,15.25
2022-10-30T09:32:01.759Z,15.00
2022-10-30T09:34:31.731Z,14.75
2022-10-30T09:37:04.959Z,14.25
2022-10-30T09:39:39.487Z,14.75
2022-10-30T09:42:22.123Z,14.50
2022-10-30T09:47:56.635Z,16.00
2022-10-30T09:50:26.395Z,14.25
2022-10-30T09:53:04.328Z,15.50
2022-10-30T09:55:35.394Z,14.50
2022-10-30T09:58:10.885Z,12.50
2022-10-30T10:00:40.903Z,13.25
2022-10-30T10:03:22.610Z,13.00
2022-10-30T10:06:13.184Z,13.00
2022-10-30T10:08:56.097Z,14.00
2022-10-30T10:11:43.997Z,13.50
2022-10-30T10:14:14.188Z,15.00
2022-10-30T10:16:43.034Z,14.50
2022-10-30T10:19:15.825Z,15.25
2022-10-30T10:21:45.168Z,16.00
2022-10-30T10:24:19.533Z,16.00
2022-10-30T10:26:49.150Z,14.25
2022-10-30T10:29:36.897Z,15.75
2022-10-30T10:32:18.564Z,15.00
2022-10-30T10:34:54.641Z,15.00
2022-10-30T10:37:28.141Z,16.25
2022-10-30T10:40:04.136Z,15.25
2022-10-30T10:42:36.199Z,16.75
2022-10-30T10:45:13.811Z,18.00
2022-10-30T10:48:01.702Z,18.00
2022-10-30T10:50:30.445Z,18.75
2022-10-30T10:53:01.315Z,18.00
2022-10-30T10:55:33.697Z,17.25
2022-10-30T10:58:08.325Z,18.00
2022-10-30T11:00:35.738Z,16.00
2022-10-30T11:03:07.807Z,17.00
2022-10-30T11:05:36.904Z,18.00
2022-10-30T11:08:11.176Z,17.50
2022-10-30T11:10:38.623Z,17.25
2022-10-30T11:13:06.033Z,17.50
2022-10-30T11:15:41.573Z,18.00
2022-10-30T11:18:10.852Z,16.75
2022-10-30T11:20:41.379Z,18.25
2022-10-30T11:23:33.283Z,17.50
2022-10-30T11:26:00.712Z,16.25
2022-10-30T11:28:35.896Z,14.00
2022-10-30T11:31:19.893Z,16.00
2022-10-30T11:33:48.698Z,18.00
2022-10-30T11:36:16.575Z,13.50
2022-10-30T11:38:43.977Z,14.50
2022-10-30T11:41:11.407Z,14.75
2022-10-30T11:43:38.920Z,15.75
2022-10-30T11:46:09.459Z,15.75
2022-10-30T11:48:38.376Z,16.50
2022-10-30T11:51:07.243Z,15.75
2022-10-30T11:53:36.504Z,15.00
2022-10-30T11:56:05.024Z,15.00
2022-10-30T11:58:34.878Z,16.75
2022-10-30T12:01:03.551Z,15.50
2022-10-30T12:03:35.885Z,15.25
2022-10-30T12:06:12.041Z,18.00
2022-10-30T12:08:39.474Z,16.00
2022-10-30T12:11:09.921Z,16.25
2022-10-30T12:13:39.713Z,16.50
2022-10-30T12:16:09.761Z,16.00
2022-10-30T12:18:37.163Z,17.00
2022-10-30T12:21:04.895Z,18.00
2022-10-30T12:23:33.631Z,15.50
2022-10-30T12:26:03.098Z,16.25
2022-10-30T12:28:31.238Z,16.25
2022-10-30T12:30:59.696Z,14.00
2022-10-30T12:33:28.343Z,13.25
2022-10-30T12:35:56.733Z,15.25
2022-10-30T12:38:26.635Z,16.25
2022-10-30T12:41:01.051Z,16.50
2022-10-30T12:43:28.550Z,15.25
2022-10-30T12:45:58.063Z,16.50
2022-10-30T12:48:26.630Z,16.00
2022-10-30T12:50:58.890Z,15.25
2022-10-30T12:53:29.994Z,15.25
2022-10-30T12:56:00.645Z,15.25
2022-10-30T12:58:32.779Z,14.75
2022-10-30T13:01:02.210Z,13.25
2022-10-30T13:03:31.079Z,15.25
2022-10-30T13:06:00.941Z,12.00
2022-10-30T13:08:29.780Z,13.25
2022-10-30T13:11:00.954Z,15.25
2022-10-30T13:13:30.035Z,13.50
2022-10-30T13:15:58.896Z,13.25
2022-10-30T13:18:27.507Z,15.50
2022-10-30T13:21:03.154Z,14.00
2022-10-30T13:23:34.724Z,14.00
2022-10-30T13:26:09.240Z,12.50
2022-10-30T13:28:38.782Z,14.00
2022-10-30T13:31:10.561Z,12.00
2022-10-30T13:33:39.986Z,13.00
2022-10-30T13:36:11.160Z,10.75
2022-10-30T13:38:43.216Z,11.50
2022-10-30T13:41:12.701Z,11.00
2022-10-30T13:43:43.346Z,11.25
2022-10-30T13:46:28.333Z,11.00
2022-10-30T13:49:03.880Z,11.50
2022-10-30T13:51:35.514Z,11.00
2022-10-30T13:54:10.302Z,9.75
2022-10-30T13:56:38.987Z,9.00
2022-10-30T13:59:11.890Z,10.50
2022-10-30T14:01:40.841Z,7.00
2022-10-30T14:04:10.981Z,11.00
2022-10-30T14:06:41.784Z,10.50
2022-10-30T14:09:13.804Z,11.00
2022-10-30T14:11:42.567Z,9.00
2022-10-30T14:14:28.093Z,10.25
2022-10-30T14:17:12.069Z,11.25
2022-10-30T14:20:16.987Z,11.00
2022-10-30T14:22:45.011Z,9.00
2022-10-30T14:25:15.412Z,10.50
2022-10-30T14:27:44.137Z,10.00
2022-10-30T14:30:20.448Z,10.00
2022-10-30T14:32:51.604Z,9.00
2022-10-30T14:35:39.455Z,10.75
2022-10-30T14:38:25.843Z,10.25
2022-10-30T14:41:16.602Z,10.00
2022-10-30T14:43:48.318Z,9.25
2022-10-30T14:46:19.724Z,11.00
2022-10-30T14:48:49.451Z,10.25
2022-10-30T14:51:19.186Z,10.00
2022-10-30T14:53:53.083Z,8.75
2022-10-30T14:56:25.038Z,9.25
2022-10-30T14:59:11.784Z,9.00
2022-10-30T15:01:46.456Z,9.00
2022-10-30T15:04:18.191Z,11.00
2022-10-30T15:06:54.568Z,10.00
2022-10-30T15:09:28.847Z,9.00
2022-10-30T15:12:20.613Z,11.50
2022-10-30T15:14:54.511Z,10.00
2022-10-30T15:17:28.839Z,10.25
2022-10-30T15:19:56.237Z,10.00
2022-10-30T15:22:23.642Z,10.25
2022-10-30T15:24:51.081Z,11.00
2022-10-30T15:27:19.376Z,10.00
2022-10-30T15:29:49.946Z,10.25
2022-10-30T15:32:18.516Z,9.50
2022-10-30T15:34:53.628Z,10.75
2022-10-30T15:37:21.023Z,11.00
2022-10-30T15:39:48.447Z,11.75
2022-10-30T15:42:15.867Z,11.00
2022-10-30T15:44:44.699Z,10.00
2022-10-30T15:47:15.536Z,11.50
2022-10-30T15:49:43.665Z,10.25
2022-10-30T15:52:13.826Z,9.00
2022-10-30T15:54:41.337Z,10.25
2022-10-30T16:00:04.389Z,11.00
2022-10-30T16:02:36.398Z,10.50
2022-10-30T16:05:18.797Z,12.00
2022-10-30T16:07:46.219Z,12.00
2022-10-30T16:10:15.795Z,11.50
2022-10-30T16:12:43.437Z,12.00
2022-10-30T16:15:28.142Z,11.00
2022-10-30T16:18:06.897Z,12.25
2022-10-30T16:20:35.181Z,12.00
2022-10-30T16:23:02.600Z,12.00
2022-10-30T16:25:31.624Z,12.00
2022-10-30T16:27:59.261Z,11.00
2022-10-30T16:30:29.402Z,13.00
2022-10-30T16:32:57.059Z,13.00
2022-10-30T16:35:25.940Z,12.75
2022-10-30T16:37:53.324Z,14.25
2022-10-30T16:40:22.412Z,14.00
2022-10-30T16:42:52.562Z,13.00
2022-10-30T16:45:50.930Z,13.75
2022-10-30T16:48:27.541Z,14.00
2022-10-30T16:51:01.004Z,12.50
2022-10-30T16:53:28.562Z,13.75
2022-10-30T16:55:57.045Z,13.75
2022-10-30T16:58:25.412Z,12.50
2022-10-30T17:00:53.623Z,14.25
2022-10-30T17:03:24.897Z,15.00
2022-10-30T17:06:01.314Z,13.50
2022-10-30T17:08:34.160Z,14.00
2022-10-30T17:11:02.545Z,13.00
2022-10-30T17:13:31.954Z,11.25
2022-10-30T17:15:59.405Z,14.00
2022-10-30T17:18:30.524Z,14.25
2022-10-30T17:21:01.057Z,16.00
2022-10-30T17:23:28.461Z,13.00
2022-10-30T17:25:56.324Z,15.00
2022-10-30T17:28:27.364Z,15.75
2022-10-30T17:30:54.821Z,16.00
2022-10-30T17:33:27.077Z,13.00
2022-10-30T17:38:31.379Z,16.00
2022-10-30T17:41:02.268Z,13.00
2022-10-30T17:43:30.644Z,16.00
2022-10-30T17:45:58.067Z,15.25
2022-10-30T17:48:26.901Z,15.00
2022-10-30T17:50:54.386Z,15.50
2022-10-30T17:53:22.633Z,16.00
2022-10-30T17:55:56.807Z,17.00
2022-10-30T17:58:24.372Z,15.75
2022-10-30T18:00:51.862Z,14.25
2022-10-30T18:03:19.297Z,15.75
2022-10-30T18:05:46.869Z,17.25
2022-10-30T18:08:14.278Z,15.00
2022-10-30T18:10:43.612Z,13.75
2022-10-30T18:13:12.568Z,16.00
2022-10-30T18:15:40.811Z,15.50
2022-10-30T18:18:08.207Z,16.50
2022-10-30T18:20:35.717Z,15.00
2022-10-30T18:23:03.646Z,18.75
2022-10-30T18:25:35.013Z,16.00
2022-10-30T18:28:02.637Z,17.00
2022-10-30T18:30:31.363Z,12.75
2022-10-30T18:32:59.232Z,18.00
2022-10-30T18:35:28.316Z,17.75
2022-10-30T18:37:55.716Z,18.00
2022-10-30T18:40:23.124Z,19.75
2022-10-30T18:42:50.534Z,18.75
2022-10-30T18:45:19.682Z,20.00
2022-10-30T18:47:48.476Z,19.50
2022-10-30T18:50:16.176Z,20.75
2022-10-30T18:52:43.588Z,22.00
2022-10-30T18:55:19.105Z,19.50
2022-10-30T18:57:46.578Z,21.25
2022-10-30T19:00:14.731Z,20.25
2022-10-30T19:02:42.240Z,20.00
2022-10-30T19:05:19.111Z,24.00
2022-10-30T19:07:46.561Z,23.00
2022-10-30T19:10:14.036Z,24.00
2022-10-30T19:12:51.574Z,24.75
2022-10-30T19:15:29.617Z,23.00
2022-10-30T19:17:57.301Z,25.25
2022-10-30T19:20:37.584Z,26.00
2022-10-30T19:23:14.611Z,26.25
2022-10-30T19:25:44.267Z,22.00
2022-10-30T19:28:12.176Z,3.00
2022-10-30T19:30:39.702Z,26.75
2022-10-30T19:33:07.174Z,26.75
2022-10-30T19:35:35.881Z,27.25
2022-10-30T19:38:07.885Z,25.00
2022-10-30T19:40:35.842Z,25.50
2022-10-30T19:43:03.333Z,26.50
2022-10-30T19:45:31.428Z,24.00
2022-10-30T19:47:59.830Z,27.00
2022-10-30T19:50:28.629Z,24.00
2022-10-30T19:52:58.740Z,24.75
2022-10-30T19:55:26.825Z,25.00
2022-10-30T19:57:54.351Z,27.00
2022-10-30T20:00:24.219Z,25.00
2022-10-30T20:02:52.205Z,26.00
2022-10-30T20:05:20.316Z,26.25
2022-10-30T20:08:00.159Z,26.00
2022-10-30T20:10:27.942Z,26.00
2022-10-30T20:12:56.806Z,26.75
2022-10-30T20:15:24.228Z,26.25
2022-10-30T20:17:51.630Z,26.00
2022-10-30T20:20:20.490Z,26.25
2022-10-30T20:22:47.901Z,25.00
2022-10-30T20:25:16.974Z,26.00
2022-10-30T20:27:44.969Z,26.00
2022-10-30T20:30:15.675Z,26.25
2022-10-30T20:32:43.121Z,24.25
2022-10-30T20:35:11.412Z,26.50
2022-10-30T20:37:39.178Z,26.75
2022-10-30T20:40:12.383Z,9.75
2022-10-30T20:42:41.726Z,26.75
2022-10-30T20:45:15.188Z,26.50
2022-10-30T20:47:42.933Z,26.25
2022-10-30T20:50:11.196Z,25.00
2022-10-30T20:52:38.905Z,27.50
2022-10-30T20:55:07.786Z,27.25
2022-10-30T21:00:05.092Z,27.50
2022-10-30T21:02:33.218Z,28.00
2022-10-30T21:05:11.410Z,27.50
2022-10-30T21:07:48.738Z,28.00
2022-10-30T21:10:16.466Z,26.75
2022-10-30T21:12:44.026Z,28.00
2022-10-30T21:15:13.649Z,22.25
2022-10-30T21:17:41.698Z,27.50
2022-10-30T21:20:10.803Z,27.75
2022-10-30T21:22:38.576Z,28.00
2022-10-30T21:25:06.915Z,28.00
2022-10-30T21:27:34.522Z,25.50
2022-10-30T21:30:02.670Z,27.25
2022-10-30T21:32:32.557Z,29.00
2022-10-30T21:35:00.579Z,28.50
2022-10-30T21:37:28.106Z,28.00
2022-10-30T21:39:55.704Z,28.75
2022-10-30T21:42:23.805Z,27.50
2022-10-30T21:44:51.775Z,27.00
2022-10-30T21:47:19.373Z,28.00
2022-10-30T21:49:48.556Z,26.75
2022-10-30T21:52:16.246Z,27.50
2022-10-30T21:54:44.109Z,26.50
2022-10-30T21:57:11.817Z,27.75
2022-10-30T21:59:39.439Z,27.75
2022-10-30T22:02:06.981Z,28.00
2022-10-30T22:04:34.789Z,28.00
2022-10-30T22:07:04.060Z,28.00
2022-10-30T22:09:31.991Z,28.00
2022-10-30T22:11:59.729Z,27.75
2022-10-30T22:14:27.518Z,27.25
2022-10-30T22:16:55.199Z,28.00
2022-10-30T22:19:22.968Z,27.75
2022-10-30T22:21:50.691Z,27.00
2022-10-30T22:24:20.018Z,27.00
2022-10-30T22:26:47.957Z,27.00
2022-10-30T22:29:15.663Z,28.00
2022-10-30T22:31:43.375Z,26.50
2022-10-30T22:34:11.006Z,27.25
2022-10-30T22:36:38.615Z,27.00
2022-10-30T22:39:07.476Z,27.25
2022-10-30T22:41:38.245Z,28.00
2022-10-30T22:44:08.074Z,27.00
2022-10-30T22:46:36.504Z,27.50
2022-10-30T22:49:04.325Z,26.25
2022-10-30T22:51:32.817Z,28.00
2022-10-30T22:54:01.837Z,27.00
2022-10-30T22:56:30.282Z,27.50
2022-10-30T22:59:01.612Z,26.75
2022-10-30T23:01:30.226Z,25.50
2022-10-30T23:03:58.700Z,26.50
2022-10-30T23:06:26.703Z,27.50
2022-10-30T23:08:54.924Z,27.25
2022-10-30T23:11:22.860Z,26.25
2022-10-30T23:13:50.673Z,27.75
2022-10-30T23:16:20.513Z,28.00
2022-10-30T23:18:48.474Z,27.75
2022-10-30T23:21:17.226Z,27.25
2022-10-30T23:23:44.950Z,27.00
2022-10-30T23:26:13.593Z,27.25
2022-10-30T23:28:41.352Z,27.25
2022-10-30T23:31:09.105Z,26.00
2022-10-30T23:33:38.324Z,27.00
2022-10-30T23:36:06.784Z,27.25
2022-10-30T23:38:34.301Z,26.25
2022-10-30T23:41:01.850Z,27.25
2022-10-30T23:43:29.392Z,26.75
2022-10-30T23:45:56.866Z,26.75
2022-10-30T23:48:24.355Z,26.00
2022-10-30T23:50:53.211Z,28.00
2022-10-30T23:53:20.765Z,25.25
2022-10-30T23:55:51.891Z,26.00
2022-10-30T23:58:19.446Z,27.00
